createdAt,value
2018-09-04T00:04:21.370Z,15.70
2018-09-04T00:12:56.950Z,15.80
2018-09-04T00:15:26.844Z,15.80
2018-09-04T00:23:42.628Z,15.80
2018-09-04T00:43:28.752Z,15.50
2018-09-04T01:03:14.299Z,15.10
2018-09-04T01:34:31.098Z,14.70
2018-09-04T02:34:35.200Z,14.40
2018-09-04T03:34:41.947Z,14.80
2018-09-04T05:00:50.123Z,14.80
2018-09-04T05:03:23.039Z,14.70
2018-09-04T05:05:53.582Z,14.70
2018-09-04T05:08:32.293Z,14.70
2018-09-04T05:11:06.618Z,14.70
2018-09-04T05:13:37.127Z,14.70
2018-09-04T05:19:01.279Z,14.80
2018-09-04T05:21:32.051Z,14.70
2018-09-04T05:24:03.155Z,14.60
2018-09-04T05:26:33.328Z,14.60
2018-09-04T05:29:04.591Z,14.60
2018-09-04T05:31:40.960Z,14.60
2018-09-04T05:34:11.688Z,14.60
2018-09-04T05:36:42.036Z,14.60
2018-09-04T05:39:12.629Z,14.70
2018-09-04T05:41:43.467Z,14.80
2018-09-04T05:44:14.391Z,14.90
2018-09-04T05:46:47.960Z,14.80
2018-09-04T05:49:21.622Z,14.90
2018-09-04T05:51:52.227Z,14.90
2018-09-04T05:54:30.931Z,14.90
2018-09-04T05:57:01.859Z,15.00
2018-09-04T05:59:32.570Z,15.10
2018-09-04T06:02:03.185Z,15.20
2018-09-04T06:04:33.742Z,15.30
2018-09-04T06:07:04.793Z,15.40
2018-09-04T06:09:35.393Z,15.50
2018-09-04T06:12:06.048Z,15.60
2018-09-04T06:14:36.654Z,15.70
2018-09-04T06:17:07.594Z,15.80
2018-09-04T06:19:38.034Z,15.90
2018-09-04T06:22:08.291Z,16.00
2018-09-04T06:24:39.215Z,16.10
2018-09-04T06:27:09.880Z,16.20
2018-09-04T06:29:40.463Z,16.40
2018-09-04T06:32:11.321Z,16.50
2018-09-04T06:34:42.247Z,16.70
2018-09-04T06:37:12.610Z,16.80
2018-09-04T06:39:43.506Z,16.90
2018-09-04T06:42:14.188Z,17.10
2018-09-04T06:44:44.518Z,17.30
2018-09-04T06:47:14.792Z,17.50
2018-09-04T06:49:45.454Z,17.60
2018-09-04T06:52:16.264Z,17.80
2018-09-04T06:54:46.863Z,18.00
2018-09-04T06:57:17.109Z,18.20
2018-09-04T07:02:38.968Z,18.50
2018-09-04T07:05:09.649Z,18.70
2018-09-04T07:13:24.407Z,19.40
2018-09-04T07:15:54.304Z,19.60
2018-09-04T07:21:16.010Z,19.80
2018-09-04T07:23:45.917Z,19.90
2018-09-04T07:26:15.107Z,20.20
2018-09-04T07:28:43.859Z,20.30
2018-09-04T07:34:05.467Z,20.60
2018-09-04T07:36:34.596Z,20.70
2018-09-04T07:39:03.816Z,20.70
2018-09-04T07:41:32.601Z,20.80
2018-09-04T07:44:01.817Z,21.00
2018-09-04T07:46:30.590Z,21.10
2018-09-04T07:49:02.938Z,21.10
2018-09-04T07:51:32.054Z,21.10
2018-09-04T07:54:00.864Z,21.30
2018-09-04T07:56:29.673Z,21.40
2018-09-04T08:04:45.882Z,21.70
2018-09-04T08:07:15.349Z,21.90
2018-09-04T08:09:44.282Z,22.10
2018-09-04T08:15:06.613Z,22.30
2018-09-04T08:20:28.564Z,22.70
2018-09-04T08:22:57.727Z,23.00
2018-09-04T08:25:27.292Z,23.30
2018-09-04T08:27:56.076Z,23.40
2018-09-04T08:30:24.912Z,23.40
2018-09-04T08:32:53.719Z,23.50
2018-09-04T08:35:22.446Z,23.40
2018-09-04T08:37:55.342Z,23.30
2018-09-04T08:40:24.305Z,23.10
2018-09-04T08:42:53.036Z,23.00
2018-09-04T08:45:21.926Z,22.90
2018-09-04T08:47:50.775Z,22.90
2018-09-04T08:50:19.570Z,23.10
2018-09-04T08:52:48.454Z,23.10
2018-09-04T08:55:17.210Z,23.30
2018-09-04T08:57:46.037Z,23.40
2018-09-04T09:00:15.334Z,23.80
2018-09-04T09:02:44.031Z,24.00
2018-09-04T09:05:12.841Z,24.20
2018-09-04T09:07:41.616Z,23.90
2018-09-04T09:10:10.511Z,23.80
2018-09-04T09:12:39.171Z,24.00
2018-09-04T09:15:07.986Z,24.20
2018-09-04T09:17:36.706Z,24.40
2018-09-04T09:20:05.798Z,24.60
2018-09-04T09:22:34.523Z,24.90
2018-09-04T09:25:04.270Z,25.20
2018-09-04T09:27:38.044Z,25.30
2018-09-04T09:30:06.900Z,25.30
2018-09-04T09:32:35.848Z,25.30
2018-09-04T09:35:06.708Z,25.50
2018-09-04T09:37:35.565Z,25.50
2018-09-04T09:40:05.024Z,25.70
2018-09-04T09:42:33.874Z,25.90
2018-09-04T09:45:02.632Z,25.90
2018-09-04T09:47:31.817Z,25.90
2018-09-04T09:50:00.558Z,26.10
2018-09-04T09:52:29.353Z,25.80
2018-09-04T09:54:58.171Z,25.90
2018-09-04T09:57:26.879Z,26.40
2018-09-04T09:59:55.974Z,27.30
2018-09-04T10:02:29.926Z,27.90
2018-09-04T10:04:58.735Z,28.30
2018-09-04T10:07:27.556Z,28.80
2018-09-04T10:09:56.372Z,29.30
2018-09-04T10:12:25.193Z,29.80
2018-09-04T10:14:54.022Z,30.20
2018-09-04T10:17:22.731Z,30.20
2018-09-04T10:19:52.087Z,29.90
2018-09-04T10:22:20.836Z,29.50
2018-09-04T10:24:49.584Z,29.90
2018-09-04T10:27:18.315Z,29.90
2018-09-04T10:29:47.064Z,30.10
2018-09-04T10:32:16.175Z,30.30
2018-09-04T10:34:44.908Z,30.30
2018-09-04T10:37:13.653Z,30.10
2018-09-04T10:39:47.571Z,29.70
2018-09-04T10:42:20.532Z,28.60
2018-09-04T10:44:49.394Z,27.70
2018-09-04T10:47:18.186Z,27.10
2018-09-04T10:49:46.949Z,27.10
2018-09-04T10:52:15.731Z,27.30
2018-09-04T10:54:44.546Z,27.30
2018-09-04T10:57:13.468Z,27.50
2018-09-04T10:59:42.294Z,27.80
2018-09-04T11:02:12.039Z,28.00
2018-09-04T11:04:40.911Z,28.40
2018-09-04T11:07:09.626Z,28.60
2018-09-04T11:09:38.572Z,28.50
2018-09-04T11:12:07.158Z,27.90
2018-09-04T11:14:35.912Z,27.50
2018-09-04T11:17:04.795Z,27.70
2018-09-04T11:19:33.523Z,27.80
2018-09-04T11:22:02.291Z,27.80
2018-09-04T11:24:30.999Z,27.90
2018-09-04T11:26:59.994Z,28.20
2018-09-04T11:29:28.695Z,28.70
2018-09-04T11:31:57.452Z,29.40
2018-09-04T11:34:26.287Z,30.10
2018-09-04T11:36:55.031Z,30.50
2018-09-04T11:39:23.818Z,31.00
2018-09-04T11:41:52.604Z,31.30
2018-09-04T11:44:21.320Z,32.00
2018-09-04T11:46:50.872Z,33.10
2018-09-04T11:49:19.588Z,33.80
2018-09-04T11:57:34.111Z,34.60
2018-09-04T12:00:03.446Z,35.20
2018-09-04T12:02:34.959Z,36.00
2018-09-04T12:05:03.707Z,35.80
2018-09-04T12:07:32.498Z,36.20
2018-09-04T12:10:01.230Z,36.90
2018-09-04T12:12:31.339Z,36.90
2018-09-04T12:14:59.949Z,36.10
2018-09-04T12:17:28.802Z,34.20
2018-09-04T12:21:06.690Z,32.40
2018-09-04T12:23:35.468Z,31.10
2018-09-04T12:26:05.655Z,29.90
2018-09-04T12:28:34.522Z,29.00
2018-09-04T12:31:03.557Z,28.60
2018-09-04T12:33:32.318Z,28.20
2018-09-04T12:36:06.366Z,28.20
2018-09-04T12:38:38.026Z,28.80
2018-09-04T12:41:12.401Z,29.70
2018-09-04T12:43:41.201Z,30.10
2018-09-04T12:46:09.995Z,30.70
2018-09-04T12:48:38.832Z,31.70
2018-09-04T12:51:07.726Z,32.80
2018-09-04T12:53:37.614Z,34.20
2018-09-04T12:56:06.577Z,34.60
2018-09-04T12:58:35.286Z,34.90
2018-09-04T13:01:05.647Z,34.90
2018-09-04T13:03:35.727Z,35.00
2018-09-04T13:06:04.730Z,35.10
2018-09-04T13:08:34.238Z,35.50
2018-09-04T13:11:04.118Z,35.90
2018-09-04T13:13:33.058Z,36.50
2018-09-04T13:16:02.048Z,36.10
2018-09-04T13:18:31.113Z,36.40
2018-09-04T13:21:06.817Z,36.20
2018-09-04T13:23:36.129Z,35.40
2018-09-04T13:26:05.091Z,35.40
2018-09-04T13:28:34.335Z,36.50
2018-09-04T13:31:03.230Z,37.40
2018-09-04T13:33:32.036Z,36.70
2018-09-04T13:36:04.883Z,35.70
2018-09-04T13:38:33.736Z,35.40
2018-09-04T13:41:06.954Z,34.30
2018-09-04T13:43:36.385Z,34.10
2018-09-04T13:46:05.405Z,35.00
2018-09-04T13:48:34.944Z,35.80
2018-09-04T13:51:03.705Z,36.50
2018-09-04T13:53:32.536Z,36.80
2018-09-04T13:56:01.732Z,37.00
2018-09-04T13:58:30.584Z,37.10
2018-09-04T14:00:59.328Z,37.20
2018-09-04T14:04:24.208Z,37.00
2018-09-04T14:06:53.034Z,37.00
2018-09-04T14:09:22.588Z,36.40
2018-09-04T14:11:51.474Z,35.50
2018-09-04T14:14:20.959Z,34.80
2018-09-04T14:16:50.510Z,34.10
2018-09-04T14:19:22.016Z,33.70
2018-09-04T14:21:55.019Z,33.70
2018-09-04T14:24:25.246Z,34.10
2018-09-04T14:26:54.056Z,35.00
2018-09-04T14:29:53.158Z,35.10
2018-09-04T14:31:52.619Z,34.70
2018-09-04T14:34:22.112Z,33.90
2018-09-04T14:36:51.197Z,33.60
2018-09-04T14:39:19.897Z,32.90
2018-09-04T14:41:48.718Z,31.90
2018-09-04T14:44:17.770Z,31.50
2018-09-04T14:46:47.523Z,30.80
2018-09-04T14:49:16.353Z,30.20
2018-09-04T14:51:45.141Z,29.70
2018-09-04T14:54:14.021Z,29.60
2018-09-04T14:56:42.845Z,29.70
2018-09-04T14:59:12.500Z,29.40
2018-09-04T15:01:41.279Z,29.20
2018-09-04T15:04:10.175Z,29.00
2018-09-04T15:06:40.651Z,29.00
2018-09-04T15:09:09.626Z,29.10
2018-09-04T15:11:38.483Z,29.30
2018-09-04T15:14:07.262Z,29.30
2018-09-04T15:16:45.679Z,29.20
2018-09-04T15:19:18.392Z,29.20
2018-09-04T15:21:49.709Z,29.10
2018-09-04T15:24:18.840Z,29.10
2018-09-04T15:26:48.575Z,29.10
2018-09-04T15:29:17.436Z,29.20
2018-09-04T15:31:47.153Z,29.30
2018-09-04T15:34:16.018Z,29.40
2018-09-04T15:36:44.917Z,29.50
2018-09-04T15:39:14.175Z,29.40
2018-09-04T15:41:44.017Z,29.40
2018-09-04T15:44:17.935Z,29.20
2018-09-04T15:46:46.736Z,28.80
2018-09-04T15:49:20.889Z,27.70
2018-09-04T15:51:49.699Z,26.10
2018-09-04T15:54:18.509Z,24.50
2018-09-04T15:56:48.126Z,23.70
2018-09-04T15:59:16.967Z,23.00
2018-09-04T16:01:45.753Z,22.60
2018-09-04T16:04:14.865Z,22.20
2018-09-04T16:06:43.758Z,21.90
2018-09-04T16:09:12.703Z,21.80
2018-09-04T16:11:45.572Z,21.60
2018-09-04T16:14:18.327Z,21.40
2018-09-04T16:16:47.295Z,21.30
2018-09-04T16:19:18.074Z,21.10
2018-09-04T16:21:47.479Z,21.10
2018-09-04T16:24:17.624Z,21.20
2018-09-04T16:26:50.529Z,21.10
2018-09-04T16:29:19.543Z,21.20
2018-09-04T16:31:49.127Z,21.00
2018-09-04T16:34:18.369Z,20.90
2018-09-04T16:36:47.195Z,20.90
2018-09-04T16:39:17.083Z,20.90
2018-09-04T16:41:51.218Z,20.90
2018-09-04T16:44:20.596Z,21.20
2018-09-04T16:46:51.652Z,21.30
2018-09-04T16:49:31.849Z,21.30
2018-09-04T16:52:02.272Z,21.40
2018-09-04T16:54:37.141Z,21.40
2018-09-04T16:57:08.477Z,21.30
2018-09-04T16:59:37.973Z,21.30
2018-09-04T17:02:13.710Z,21.50
2018-09-04T17:04:44.328Z,21.50
2018-09-04T17:07:14.968Z,21.50
2018-09-04T17:09:50.922Z,21.40
2018-09-04T17:12:21.444Z,21.30
2018-09-04T17:14:51.635Z,21.10
2018-09-04T17:17:26.569Z,21.00
2018-09-04T17:19:58.067Z,20.90
2018-09-04T17:22:34.545Z,20.90
2018-09-04T17:25:04.255Z,21.00
2018-09-04T17:27:44.669Z,21.00
2018-09-04T17:30:19.977Z,21.00
2018-09-04T17:32:49.396Z,20.90
2018-09-04T17:35:19.787Z,21.00
2018-09-04T17:37:53.469Z,20.90
2018-09-04T17:40:23.130Z,20.90
2018-09-04T17:42:56.376Z,20.90
2018-09-04T17:45:28.698Z,20.80
2018-09-04T17:48:00.402Z,20.70
2018-09-04T17:50:56.356Z,20.60
2018-09-04T17:53:29.503Z,20.40
2018-09-04T17:56:01.811Z,20.40
2018-09-04T18:01:14.217Z,20.20
2018-09-04T18:03:56.450Z,20.30
2018-09-04T18:06:27.533Z,20.60
2018-09-04T18:09:01.083Z,20.60
2018-09-04T18:14:26.839Z,20.50
2018-09-04T18:17:16.126Z,20.30
2018-09-04T18:19:47.892Z,20.10
2018-09-04T18:22:19.892Z,19.90
2018-09-04T18:24:49.884Z,19.80
2018-09-04T18:27:20.558Z,19.70
2018-09-04T18:32:57.756Z,19.50
2018-09-04T18:35:29.797Z,19.50
2018-09-04T18:38:19.401Z,19.60
2018-09-04T18:41:11.874Z,19.40
